DW1549 Fauske NO current weather conditions

sailwx.info

Wind from 124 at 7 knots gusting 13

Air temperature 7.8° C
Dewpoint 3.1° C

Last reported at 2014-Oct-25 06:49 UTC.
Time now 2014-Oct-25 07:15 UTC

Location: N 67°16' E 015°25'.
View on Google Maps.

See reports from other nearby stations

  
Tides and Currents Weather Stations Pressure Air Temp Water Temp Dewpoint Dewpoint Depression Visibility Wind Speed Wind Dir Waves Ship Positions
date/time (UTC)wind fromknots sea level pressurealtimeterstation pressurevisibilityair tempwater tempwave heightnotes
2014-Oct-25 06:49 124 7 gusting 13 7.8
2014-Oct-25 06:39 119 7 gusting 14 7.8
2014-Oct-25 06:29 121 8 gusting 14 7.8
2014-Oct-25 06:19 128 11 gusting 17 7.8
2014-Oct-25 06:09 122 8 gusting 17 7.8
2014-Oct-25 05:59 121 10 gusting 19 7.8
2014-Oct-25 05:49 124 11 gusting 17 7.8
2014-Oct-25 05:39 136 6 gusting 13 7.8
2014-Oct-25 05:29 124 8 gusting 17 7.8
2014-Oct-25 05:19 138 7 gusting 14 7.8
2014-Oct-25 05:09 128 10 gusting 15 7.8
2014-Oct-25 04:59 139 9 gusting 18 7.2
2014-Oct-25 04:49 134 12 gusting 19 7.2
2014-Oct-25 04:39 118 11 gusting 19 7.2
2014-Oct-25 04:29 125 12 gusting 19 7.2
2014-Oct-25 04:19 096 9 gusting 19 7.2
2014-Oct-25 04:09 125 7 gusting 17 7.2
2014-Oct-25 03:59 128 8 gusting 17 7.2
2014-Oct-25 03:49 131 7 gusting 17 7.8
2014-Oct-25 03:39 130 10 gusting 15 7.8
2014-Oct-25 03:29 154 8 gusting 14 7.8
2014-Oct-25 03:19 128 10 gusting 19 7.8
2014-Oct-25 03:09 138 10 gusting 17 7.8
2014-Oct-25 02:59 142 7 gusting 14 7.8
2014-Oct-25 02:49 128 8 gusting 17 7.8
2014-Oct-25 02:39 140 10 gusting 15 7.8
2014-Oct-25 02:29 134 8 gusting 18 7.8
2014-Oct-25 02:19 125 9 gusting 17 7.2
2014-Oct-25 02:09 111 2 gusting 6 7.2
2014-Oct-25 01:59 125 2 gusting 10 7.8
2014-Oct-25 01:49 121 5 gusting 12 7.8
2014-Oct-25 01:39 126 6 gusting 17 7.8
2014-Oct-25 01:29 150 10 gusting 15 7.8
2014-Oct-25 01:19 127 11 gusting 19 7.8
2014-Oct-25 01:09 120 10 gusting 17 7.8
2014-Oct-25 00:59 135 11 gusting 17 7.8
2014-Oct-25 00:49 135 10 gusting 18 7.8
2014-Oct-25 00:39 144 6 gusting 13 7.8
2014-Oct-25 00:29 132 8 gusting 17 7.8
2014-Oct-25 00:19 122 5 gusting 17 7.8
2014-Oct-25 00:09 132 11 gusting 17 7.8
2014-Oct-24 23:59 135 6 gusting 13 7.8
2014-Oct-24 23:49 136 10 gusting 18 7.8
2014-Oct-24 23:39 131 10 gusting 17 7.8
2014-Oct-24 23:29 128 5 gusting 12 7.8
2014-Oct-24 23:19 155 4 gusting 12 7.8
2014-Oct-24 23:09 133 6 gusting 18 7.8
2014-Oct-24 22:59 150 11 gusting 17 7.8
2014-Oct-24 22:49 155 4 gusting 8 7.8
2014-Oct-24 22:39 126 0 gusting 13 7.8
2014-Oct-24 22:29 131 5 gusting 10 7.8
2014-Oct-24 22:19 143 5 gusting 12 7.8
2014-Oct-24 22:09 132 4 gusting 8 7.8
2014-Oct-24 21:59 158 2 gusting 10 7.8
2014-Oct-24 21:49 135 5 gusting 13 7.8
2014-Oct-24 21:39 155 8 gusting 17 7.8
2014-Oct-24 21:29 142 2 gusting 6 7.8
2014-Oct-24 21:19 169 4 gusting 11 7.8
2014-Oct-24 21:09 149 2 gusting 6 7.8
2014-Oct-24 20:59 148 1 gusting 4 7.8
2014-Oct-24 20:49 116 6 gusting 10 7.8
2014-Oct-24 20:39 137 0 gusting 5 7.2
2014-Oct-24 20:29 144 0 gusting 8 7.8
2014-Oct-24 20:19 167 1 gusting 12 7.8
2014-Oct-24 20:09 109 6 gusting 14 7.8
2014-Oct-24 19:59 111 2 gusting 7 7.2
2014-Oct-24 19:49 114 6 gusting 11 7.8
2014-Oct-24 19:39 098 5 gusting 14 7.8
2014-Oct-24 19:29 113 11 gusting 17 7.8
2014-Oct-24 19:19 111 8 gusting 18 7.8
2014-Oct-24 19:09 102 6 gusting 13 7.2
2014-Oct-24 18:59 058 1 gusting 5 7.2
2014-Oct-24 18:49 011 6 gusting 10 7.2
2014-Oct-24 18:39 101 2 gusting 14 7.2
2014-Oct-24 18:29 126 3 gusting 13 7.2
2014-Oct-24 18:19 107 8 gusting 13 7.2
2014-Oct-24 18:09 082 3 gusting 17 7.2
2014-Oct-24 17:59 110 10 gusting 19 7.2
2014-Oct-24 17:49 110 13 gusting 21 7.2
2014-Oct-24 17:39 108 8 gusting 13 7.2
2014-Oct-24 17:29 089 8 gusting 15 7.2
2014-Oct-24 17:19 088 3 gusting 10 7.2
2014-Oct-24 17:09 107 5 gusting 12 7.2
2014-Oct-24 16:59 105 6 gusting 13 7.2
2014-Oct-24 16:49 098 9 gusting 22 7.2
2014-Oct-24 16:39 094 2 gusting 7 6.7
2014-Oct-24 16:29 094 3 gusting 8 6.7
2014-Oct-24 16:19 108 0 gusting 7 6.7
2014-Oct-24 16:09 117 0 gusting 2 7.2
2014-Oct-24 15:59 117 0 gusting 12 7.8
2014-Oct-24 15:49 161 4 gusting 10 7.8
2014-Oct-24 15:39 140 3 gusting 12 7.8
2014-Oct-24 15:29 134 4 gusting 15 7.8
2014-Oct-24 15:19 140 9 gusting 17 8.3
2014-Oct-24 15:09 138 10 gusting 15 7.8
2014-Oct-24 14:59 132 12 gusting 19 7.8
2014-Oct-24 14:49 147 11 gusting 18 7.8
2014-Oct-24 14:19 150 6 gusting 11 7.8
2014-Oct-24 14:09 096 2 gusting 10 7.2
2014-Oct-24 13:59 083 1 gusting 6 7.8
2014-Oct-24 13:49 105 5 gusting 12 7.8
2014-Oct-24 13:39 111 13 gusting 22 7.8
2014-Oct-24 13:29 109 15 gusting 22 7.8
2014-Oct-24 13:19 139 6 gusting 15 7.8
2014-Oct-24 13:09 111 5 gusting 19 7.8
2014-Oct-24 12:59 112 11 gusting 21 7.8
2014-Oct-24 12:49 100 12 gusting 20 7.8
2014-Oct-24 12:39 109 8 gusting 17 7.8
2014-Oct-24 12:29 114 12 gusting 19 7.8
2014-Oct-24 12:19 119 11 gusting 18 7.8
2014-Oct-24 12:09 090 12 gusting 19 7.8
2014-Oct-24 11:59 138 11 gusting 21 7.8
2014-Oct-24 11:49 114 12 gusting 22 7.2
2014-Oct-24 11:39 115 13 gusting 19 7.2
2014-Oct-24 11:29 104 12 gusting 21 7.2
2014-Oct-24 11:19 112 13 gusting 20 7.2
2014-Oct-24 11:09 094 13 gusting 22 7.2
2014-Oct-24 10:59 126 11 gusting 22 7.2
2014-Oct-24 10:49 112 12 gusting 22 7.2
2014-Oct-24 10:39 118 14 gusting 20 7.2
2014-Oct-24 10:29 114 14 gusting 21 7.2
2014-Oct-24 10:19 136 13 gusting 24 7.2
2014-Oct-24 10:09 132 13 gusting 19 7.2
2014-Oct-24 09:59 120 15 gusting 28 7.2
2014-Oct-24 09:49 120 13 gusting 28 7.2
2014-Oct-24 09:39 106 15 gusting 28 7.2
2014-Oct-24 09:29 123 15 gusting 28 6.7
2014-Oct-24 09:19 129 14 gusting 26 6.7
2014-Oct-24 09:09 103 10 gusting 19 6.7
2014-Oct-24 08:59 122 13 gusting 27 6.7
2014-Oct-24 08:49 134 15 gusting 25 6.7
2014-Oct-24 08:39 128 13 gusting 25 6.7
2014-Oct-24 08:29 119 11 gusting 17 6.7
2014-Oct-24 08:19 111 12 gusting 20 6.7
2014-Oct-24 08:09 114 14 gusting 22 6.1
2014-Oct-24 07:59 123 15 gusting 26 6.1
2014-Oct-24 07:49 130 13 gusting 30 6.1
2014-Oct-24 07:39 125 14 gusting 27 6.1
2014-Oct-24 07:29 103 15 gusting 27 6.1
2014-Oct-24 07:19 119 15 gusting 30 6.1
2014-Oct-24 07:09 128 17 gusting 30 6.1
2014-Oct-24 06:59 104 13 gusting 24 6.1
2014-Oct-24 06:49 114 16 gusting 26 6.1
2014-Oct-24 06:39 110 13 gusting 30 6.1
2014-Oct-24 06:29 109 15 gusting 24 6.1
2014-Oct-24 06:19 109 14 gusting 24 6.1
2014-Oct-24 06:09 104 19 gusting 28 6.1
2014-Oct-24 05:59 114 21 gusting 30 6.1
2014-Oct-24 05:49 116 18 gusting 25 6.1
2014-Oct-24 05:39 112 15 gusting 26 6.1
2014-Oct-24 05:29 123 13 gusting 24 5.6
2014-Oct-24 05:19 118 15 gusting 24 5.6
2014-Oct-24 05:09 118 13 gusting 24 5.6
2014-Oct-24 04:59 117 12 gusting 22 5.6
2014-Oct-24 04:49 110 14 gusting 27 5.6
2014-Oct-24 04:39 119 14 gusting 22 5.6
2014-Oct-24 04:29 119 15 gusting 21 6.1
2014-Oct-24 04:19 125 11 gusting 19 6.1
2014-Oct-24 04:09 142 12 gusting 20 5.6
2014-Oct-24 03:59 114 12 gusting 19 5.6
2014-Oct-24 03:49 118 12 gusting 22 5.6
2014-Oct-24 03:39 117 13 gusting 21 5.6
2014-Oct-24 03:29 129 15 gusting 26 6.1
2014-Oct-24 03:19 123 15 gusting 28 5.6
2014-Oct-24 03:09 125 17 gusting 30 5.6
2014-Oct-24 02:59 117 17 gusting 24 5.6
2014-Oct-24 02:49 125 19 gusting 24 5.6
2014-Oct-24 02:39 121 15 gusting 26 5.0
2014-Oct-24 02:29 115 16 gusting 30 5.0
2014-Oct-24 02:19 115 16 gusting 26 4.4
2014-Oct-24 02:09 113 16 gusting 25 4.4
2014-Oct-24 01:59 132 16 gusting 22 4.4
2014-Oct-24 01:49 121 13 gusting 20 4.4
2014-Oct-24 01:39 119 11 gusting 25 4.4
2014-Oct-24 01:29 108 15 gusting 28 4.4
2014-Oct-24 01:19 107 14 gusting 21 3.9
2014-Oct-24 01:09 111 16 gusting 31 4.4
2014-Oct-24 00:59 118 17 gusting 30 4.4
2014-Oct-24 00:49 119 18 gusting 27 5.0
2014-Oct-24 00:39 101 14 gusting 28 5.6
2014-Oct-24 00:29 121 15 gusting 26 6.1
2014-Oct-24 00:19 113 13 gusting 25 6.1
2014-Oct-24 00:09 111 15 gusting 28 6.1
2014-Oct-23 23:59 116 18 gusting 26 6.1
2014-Oct-23 23:49 124 15 gusting 28 5.6
2014-Oct-23 23:39 121 14 gusting 22 6.1
2014-Oct-23 23:29 126 13 gusting 24 5.6
2014-Oct-23 23:19 110 14 gusting 22 5.6
2014-Oct-23 23:09 113 16 gusting 22 5.6
2014-Oct-23 22:59 111 13 gusting 22 5.6
2014-Oct-23 22:49 118 13 gusting 22 5.6
2014-Oct-23 22:39 124 17 gusting 22 5.6
2014-Oct-23 22:29 109 11 gusting 20 5.6
2014-Oct-23 22:19 126 13 gusting 20 5.6
2014-Oct-23 22:09 103 12 gusting 22 5.6
2014-Oct-23 21:59 101 15 gusting 22 5.6
2014-Oct-23 21:49 120 17 gusting 24 5.6
2014-Oct-23 21:39 127 13 gusting 22 5.6
2014-Oct-23 21:29 116 14 gusting 22 5.6
2014-Oct-23 21:19 112 14 gusting 20 5.0
2014-Oct-23 21:09 117 11 gusting 22 5.0
2014-Oct-23 20:59 118 13 gusting 22 5.0
2014-Oct-23 20:49 115 12 gusting 26 5.0
2014-Oct-23 20:39 118 17 gusting 27 4.4
2014-Oct-23 20:29 054 16 gusting 24 4.4
2014-Oct-23 20:19 121 15 gusting 32 3.9
2014-Oct-23 20:09 117 16 gusting 27 3.9
2014-Oct-23 19:59 115 15 gusting 22 3.9
2014-Oct-23 19:49 120 18 gusting 25 3.9
2014-Oct-23 19:39 115 14 gusting 21 5.0
2014-Oct-23 19:29 128 15 gusting 21 5.0
2014-Oct-23 19:19 128 12 gusting 20 5.0
2014-Oct-23 19:09 111 13 gusting 25 5.0
2014-Oct-23 18:59 114 15 gusting 22 5.0
2014-Oct-23 18:49 115 13 gusting 21 5.0
2014-Oct-23 18:29 115 13 gusting 24 5.0
2014-Oct-23 18:19 129 14 gusting 28 5.0
2014-Oct-23 18:09 124 16 gusting 26 5.0
2014-Oct-23 17:59 123 17 gusting 28 5.0
2014-Oct-23 17:49 136 14 gusting 30 5.0
2014-Oct-23 17:39 119 19 gusting 28 5.0
2014-Oct-23 17:29 119 17 gusting 25 5.0
2014-Oct-23 17:19 126 18 gusting 31 5.0
2014-Oct-23 17:09 114 18 gusting 32 5.0
2014-Oct-23 16:59 120 19 gusting 28 4.4
2014-Oct-23 16:49 115 19 gusting 31 4.4
2014-Oct-23 16:39 101 17 gusting 26 4.4
2014-Oct-23 16:29 115 13 gusting 22 4.4
2014-Oct-23 16:19 109 17 gusting 26 4.4
2014-Oct-23 16:09 123 13 gusting 25 4.4
2014-Oct-23 15:59 096 12 gusting 25 4.4
2014-Oct-23 15:49 116 14 gusting 19 4.4
2014-Oct-23 15:39 128 20 gusting 28 4.4
2014-Oct-23 15:29 108 17 gusting 30 4.4
2014-Oct-23 15:19 117 14 gusting 26 3.9
2014-Oct-23 15:09 102 14 gusting 22 3.9
2014-Oct-23 14:59 108 14 gusting 26 3.9
2014-Oct-23 14:49 099 14 gusting 22 3.9
2014-Oct-23 14:39 130 12 gusting 22 3.9
2014-Oct-23 14:29 116 14 gusting 22 3.9
2014-Oct-23 14:19 129 12 gusting 24 3.9
2014-Oct-23 14:09 138 15 gusting 26 3.9
2014-Oct-23 13:59 128 16 gusting 28 3.9
2014-Oct-23 13:49 115 18 gusting 28 3.9
2014-Oct-23 13:39 124 16 gusting 30 3.9
2014-Oct-23 13:29 116 15 gusting 27 3.9
2014-Oct-23 13:19 121 19 gusting 30 3.9
2014-Oct-23 13:09 122 19 gusting 32 3.9
2014-Oct-23 12:59 112 15 gusting 27 3.9
2014-Oct-23 12:49 116 20 gusting 33 3.9
2014-Oct-23 12:39 117 21 gusting 34 3.9
2014-Oct-23 12:29 132 20 gusting 34 3.9
2014-Oct-23 12:19 119 20 gusting 33 3.9
2014-Oct-23 12:09 129 19 gusting 30 3.9
2014-Oct-23 11:59 123 18 gusting 28 4.4
2014-Oct-23 11:49 103 19 gusting 28 4.4
2014-Oct-23 11:39 115 21 gusting 32 4.4
2014-Oct-23 11:29 117 19 gusting 30 4.4
2014-Oct-23 11:19 117 18 gusting 30 4.4
2014-Oct-23 11:09 100 13 gusting 26 4.4
2014-Oct-23 10:59 113 15 gusting 27 3.9
2014-Oct-23 10:49 114 19 gusting 27 4.4
2014-Oct-23 10:39 121 18 gusting 30 4.4
2014-Oct-23 10:29 149 15 gusting 30 4.4
2014-Oct-23 10:19 135 17 gusting 25 4.4
2014-Oct-23 10:09 148 16 gusting 30 4.4
2014-Oct-23 09:59 120 13 gusting 28 4.4
2014-Oct-23 09:49 123 19 gusting 31 3.9
2014-Oct-23 09:39 117 15 gusting 31 3.9
2014-Oct-23 09:29 111 15 gusting 28 3.9
2014-Oct-23 09:19 109 17 gusting 26 3.9
2014-Oct-23 09:09 129 15 gusting 34 3.9
2014-Oct-23 08:59 119 17 gusting 31 3.9
2014-Oct-23 08:49 111 21 gusting 38 3.9
2014-Oct-23 08:39 119 19 gusting 30 3.3
2014-Oct-23 08:29 118 23 gusting 32 3.9
2014-Oct-23 08:19 127 26 gusting 38 3.9
2014-Oct-23 08:09 120 22 gusting 33 3.9
2014-Oct-23 07:59 118 22 gusting 32 3.9
2014-Oct-23 07:49 125 21 gusting 31 3.9
2014-Oct-23 07:39 128 24 gusting 37 3.9
2014-Oct-23 07:29 142 25 gusting 39 3.9
2014-Oct-23 07:19 116 24 gusting 39 3.9
2014-Oct-23 07:09 121 23 gusting 31 3.9